Time;durP1;ratioP1;P1;durP2;ratioP2;P2;SDS_P1;SDS_P2;PMS_P1;PMS_P2;Temp;Humidity;BMP_temperature;BMP_pressure;BME280_temperature;BME280_humidity;BME280_pressure;Samples;Min_cycle;Max_cycle;Signal;HPM_P1;HPM_P2
2023/11/07 00:01:22;;;;;;;2.58;2.38;;;20.30;58.70;;;;;;5093839;28;20062;-33
2023/11/07 00:03:48;;;;;;;2.50;2.30;;;20.30;58.80;;;;;;5090221;28;20116;-33
2023/11/07 00:06:14;;;;;;;2.35;2.15;;;20.20;58.70;;;;;;5095502;28;20036;-34
2023/11/07 00:08:41;;;;;;;2.63;2.42;;;20.20;58.60;;;;;;5089247;28;20090;-34
2023/11/07 00:11:07;;;;;;;2.47;2.28;;;20.20;58.50;;;;;;5090398;28;20054;-34
2023/11/07 00:13:33;;;;;;;2.20;2.00;;;20.20;58.50;;;;;;5083396;28;20043;-33
2023/11/07 00:15:59;;;;;;;2.92;2.40;;;20.20;58.50;;;;;;5100143;28;20731;-34
2023/11/07 00:18:25;;;;;;;3.88;2.13;;;20.20;58.50;;;;;;5096026;28;20072;-34
2023/11/07 00:20:51;;;;;;;3.50;2.13;;;20.20;58.50;;;;;;5099642;28;20047;-34
2023/11/07 00:23:18;;;;;;;2.47;2.05;;;20.20;58.40;;;;;;5096548;28;20727;-34
2023/11/07 00:25:44;;;;;;;2.65;2.40;;;20.10;58.40;;;;;;5091501;28;20118;-34
2023/11/07 00:28:11;;;;;;;1.70;1.48;;;20.10;58.40;;;;;;5094999;28;20049;-34
2023/11/07 00:30:37;;;;;;;2.97;2.40;;;20.10;58.50;;;;;;5100797;28;20039;-34
2023/11/07 00:33:04;;;;;;;3.17;2.63;;;20.10;58.50;;;;;;5090616;28;20140;-34
2023/11/07 00:35:30;;;;;;;2.60;2.30;;;20.10;58.50;;;;;;5091964;28;20044;-34
2023/11/07 00:37:57;;;;;;;3.45;2.60;;;20.10;58.50;;;;;;5085794;28;20035;-34
2023/11/07 00:40:23;;;;;;;3.03;2.73;;;20.00;58.40;;;;;;5089934;28;20028;-34
2023/11/07 00:42:49;;;;;;;2.65;2.40;;;20.00;59.00;;;;;;5095714;28;20269;-34
2023/11/07 00:45:15;;;;;;;3.15;2.17;;;20.00;58.50;;;;;;5098586;28;20036;-34
2023/11/07 00:47:41;;;;;;;2.60;2.40;;;20.00;58.50;;;;;;5102695;28;20066;-34
2023/11/07 00:50:10;;;;;;;2.50;2.10;;;20.00;58.50;;;;;;5090375;28;20065;-33
2023/11/07 00:52:38;;;;;;;3.15;2.75;;;20.00;58.60;;;;;;5103835;28;20040;-34
2023/11/07 00:55:06;;;;;;;2.35;2.15;;;19.90;58.50;;;;;;5096921;28;20032;-34
2023/11/07 00:57:33;;;;;;;3.20;2.67;;;19.90;58.50;;;;;;5098029;28;20032;-34
2023/11/07 00:59:59;;;;;;;2.47;2.28;;;19.90;58.50;;;;;;5089399;28;20020;-35
2023/11/07 01:02:25;;;;;;;2.72;2.50;;;19.90;58.50;;;;;;5104339;28;20043;-34
2023/11/07 01:04:52;;;;;;;2.97;2.67;;;19.90;58.50;;;;;;5100765;28;20467;-34
2023/11/07 01:07:18;;;;;;;2.47;2.28;;;19.90;58.60;;;;;;5091057;28;20039;-34
2023/11/07 01:09:44;;;;;;;3.05;2.75;;;19.90;58.60;;;;;;5094324;28;20515;-34
2023/11/07 01:12:10;;;;;;;3.10;2.80;;;19.80;58.60;;;;;;5097490;28;20032;-34
2023/11/07 01:14:37;;;;;;;2.58;2.38;;;19.80;58.60;;;;;;5088504;28;20036;-33
2023/11/07 01:17:03;;;;;;;3.23;2.90;;;19.80;58.60;;;;;;5090994;28;20054;-34
2023/11/07 01:19:29;;;;;;;3.05;2.75;;;19.80;58.60;;;;;;5096898;28;20781;-34
2023/11/07 01:21:55;;;;;;;2.50;2.30;;;19.80;58.60;;;;;;5095553;28;20040;-34
2023/11/07 01:24:22;;;;;;;3.10;2.60;;;19.70;58.60;;;;;;5098236;28;20044;-34
2023/11/07 01:26:48;;;;;;;3.42;2.75;;;19.80;58.70;;;;;;5101304;28;20057;-35
2023/11/07 01:29:15;;;;;;;3.13;2.83;;;19.70;58.60;;;;;;5105105;28;20027;-34
2023/11/07 01:31:41;;;;;;;2.55;2.35;;;19.70;58.70;;;;;;5095445;28;20055;-34
2023/11/07 01:34:08;;;;;;;4.40;2.80;;;19.70;58.70;;;;;;5096369;28;20400;-34
2023/11/07 01:36:34;;;;;;;3.60;3.00;;;19.70;58.70;;;;;;5101400;28;20041;-34
2023/11/07 01:39:00;;;;;;;3.50;3.03;;;19.70;58.80;;;;;;5095561;28;20031;-33
2023/11/07 01:41:27;;;;;;;3.67;3.17;;;19.70;58.80;;;;;;5097568;28;20084;-33
2023/11/07 01:43:53;;;;;;;3.05;2.75;;;19.60;58.80;;;;;;5100215;28;20059;-33
2023/11/07 01:46:20;;;;;;;3.65;2.88;;;19.60;58.80;;;;;;5088935;28;20028;-35
2023/11/07 01:48:47;;;;;;;3.17;2.88;;;19.60;58.80;;;;;;5095036;28;20082;-33
2023/11/07 01:51:15;;;;;;;2.85;2.65;;;19.60;58.80;;;;;;5099507;28;20070;-34
2023/11/07 01:53:42;;;;;;;3.60;2.90;;;19.60;58.90;;;;;;5091504;28;20066;-34
2023/11/07 01:56:12;;;;;;;3.30;3.00;;;19.50;58.80;;;;;;5096030;28;20839;-34
2023/11/07 01:58:38;;;;;;;3.00;2.70;;;19.50;58.80;;;;;;5102368;28;20393;-34
2023/11/07 02:01:05;;;;;;;3.23;2.90;;;19.50;58.90;;;;;;5094437;28;20107;-34
2023/11/07 02:03:32;;;;;;;3.00;2.70;;;19.50;58.90;;;;;;5102092;28;20024;-35
2023/11/07 02:05:58;;;;;;;3.35;3.05;;;19.50;58.90;;;;;;5102183;28;20039;-34
2023/11/07 02:08:25;;;;;;;3.38;3.08;;;19.50;58.90;;;;;;5094417;28;20028;-34
2023/11/07 02:10:53;;;;;;;3.40;3.10;;;19.40;59.00;;;;;;5093675;28;20047;-34
2023/11/07 02:13:19;;;;;;;3.30;2.92;;;19.40;59.00;;;;;;5096418;28;20110;-34
2023/11/07 02:15:45;;;;;;;3.90;3.13;;;19.40;59.00;;;;;;5092722;28;20024;-34
2023/11/07 02:18:12;;;;;;;3.33;3.03;;;19.40;59.00;;;;;;5090757;28;20069;-33
2023/11/07 02:20:38;;;;;;;4.53;3.08;;;19.40;59.10;;;;;;5092621;28;20671;-34
2023/11/07 02:23:34;;;;;;;3.50;3.20;;;19.30;59.10;;;;;;5092433;28;20079;-33
2023/11/07 02:26:00;;;;;;;3.75;3.33;;;19.30;59.10;;;;;;5098978;28;20039;-34
2023/11/07 02:28:26;;;;;;;4.13;3.27;;;19.30;59.10;;;;;;5089607;28;20047;-34
2023/11/07 02:30:52;;;;;;;3.10;2.80;;;19.30;59.10;;;;;;5093210;28;20050;-34
2023/11/07 02:33:21;;;;;;;3.55;3.25;;;19.30;59.20;;;;;;5098997;28;20757;-34
2023/11/07 02:35:47;;;;;;;3.58;3.17;;;19.20;59.20;;;;;;5090854;28;20034;-34
2023/11/07 02:38:14;;;;;;;3.05;2.75;;;19.20;59.30;;;;;;5084387;28;20031;-35
2023/11/07 02:40:40;;;;;;;4.13;3.42;;;19.20;59.20;;;;;;5084341;28;20046;-34
2023/11/07 02:43:06;;;;;;;3.42;3.13;;;19.20;59.30;;;;;;5087679;28;20051;-34
2023/11/07 02:45:36;;;;;;;3.50;3.20;;;19.20;59.30;;;;;;5088152;28;20028;-33
2023/11/07 02:48:05;;;;;;;3.42;3.13;;;19.20;59.30;;;;;;5089322;28;20037;-34
2023/11/07 02:50:32;;;;;;;3.50;3.20;;;19.10;59.30;;;;;;5085238;28;20044;-34
2023/11/07 02:52:58;;;;;;;3.38;3.08;;;19.10;59.40;;;;;;5091602;28;20039;-34
2023/11/07 02:55:25;;;;;;;3.80;3.40;;;19.10;59.40;;;;;;5096851;28;20111;-35
2023/11/07 02:57:51;;;;;;;3.70;3.40;;;19.10;59.40;;;;;;5094619;28;20028;-35
2023/11/07 03:00:19;;;;;;;3.35;3.05;;;19.10;59.40;;;;;;5089939;28;20040;-34
2023/11/07 03:02:48;;;;;;;3.60;3.30;;;19.00;59.40;;;;;;5084841;28;20059;-34
2023/11/07 03:05:14;;;;;;;3.70;3.40;;;19.00;59.50;;;;;;5090319;28;20054;-34
2023/11/07 03:07:41;;;;;;;3.75;3.45;;;19.00;59.50;;;;;;5094158;28;20036;-34
2023/11/07 03:10:08;;;;;;;3.83;3.53;;;19.00;59.50;;;;;;5092472;28;20024;-34
2023/11/07 03:12:34;;;;;;;3.97;3.60;;;19.00;59.50;;;;;;5091766;28;20040;-33
2023/11/07 03:15:00;;;;;;;4.05;3.60;;;18.90;59.50;;;;;;5092161;28;20029;-34
2023/11/07 03:17:26;;;;;;;3.72;3.35;;;18.90;59.60;;;;;;5084030;28;20028;-34
2023/11/07 03:19:53;;;;;;;3.60;3.30;;;18.90;59.60;;;;;;5092036;28;20028;-34
2023/11/07 03:22:26;;;;;;;3.63;3.30;;;18.90;59.60;;;;;;5085924;28;20029;-34
2023/11/07 03:24:52;;;;;;;4.03;3.55;;;18.90;59.70;;;;;;5100499;28;20059;-34
2023/11/07 03:27:18;;;;;;;3.40;3.10;;;18.80;60.20;;;;;;5096972;28;20085;-34
2023/11/07 03:29:44;;;;;;;3.97;3.60;;;18.80;59.70;;;;;;5090953;28;20036;-34
2023/11/07 03:32:11;;;;;;;3.80;3.50;;;18.80;59.70;;;;;;5090573;28;20028;-34
2023/11/07 03:34:37;;;;;;;4.15;3.75;;;18.80;59.70;;;;;;5091503;28;20032;-34
2023/11/07 03:37:04;;;;;;;3.60;3.30;;;18.80;59.70;;;;;;5096036;28;20039;-34
2023/11/07 03:39:31;;;;;;;3.83;3.50;;;18.80;59.80;;;;;;5090283;28;20040;-34
2023/11/07 03:41:57;;;;;;;4.20;3.80;;;18.80;59.80;;;;;;5086837;28;20032;-34
2023/11/07 03:44:24;;;;;;;3.72;3.33;;;18.70;59.80;;;;;;5088648;28;20116;-34
2023/11/07 03:46:51;;;;;;;3.90;3.55;;;18.70;59.70;;;;;;5089908;28;20509;-34
2023/11/07 03:49:18;;;;;;;4.25;3.85;;;18.70;59.80;;;;;;5083597;28;20040;-33
2023/11/07 03:51:45;;;;;;;4.07;3.67;;;18.70;59.90;;;;;;5091198;28;20044;-34
2023/11/07 03:54:12;;;;;;;4.00;3.60;;;18.70;59.90;;;;;;5090409;28;20040;-33
2023/11/07 03:56:38;;;;;;;4.03;3.72;;;18.60;59.90;;;;;;5089426;28;20112;-34
2023/11/07 03:59:04;;;;;;;4.13;3.40;;;18.60;59.90;;;;;;5089182;28;20017;-34
2023/11/07 04:01:37;;;;;;;4.10;3.70;;;18.60;59.90;;;;;;5091299;28;20040;-34
2023/11/07 04:04:03;;;;;;;3.80;3.50;;;18.60;60.00;;;;;;5091572;28;20025;-34
2023/11/07 04:06:30;;;;;;;4.20;3.80;;;18.60;60.00;;;;;;5092517;28;20067;-34
2023/11/07 04:08:57;;;;;;;4.10;3.60;;;18.60;60.10;;;;;;5092164;28;20292;-33
2023/11/07 04:11:23;;;;;;;3.80;3.22;;;18.60;60.10;;;;;;5095420;28;20059;-34
2023/11/07 04:13:50;;;;;;;2.93;2.67;;;18.50;60.00;;;;;;5091847;28;20631;-34
2023/11/07 04:16:17;;;;;;;4.03;3.63;;;18.50;60.10;;;;;;5088910;28;20157;-35
2023/11/07 04:18:44;;;;;;;4.60;4.18;;;18.50;60.10;;;;;;5085542;28;20033;-34
2023/11/07 04:21:10;;;;;;;4.85;3.92;;;18.50;60.00;;;;;;5093889;28;20077;-34
2023/11/07 04:23:36;;;;;;;4.20;3.80;;;18.50;60.20;;;;;;5100978;28;20103;-34
2023/11/07 04:26:03;;;;;;;4.43;3.83;;;18.50;60.20;;;;;;5101707;28;20037;-35
2023/11/07 04:28:31;;;;;;;4.10;3.70;;;18.40;60.20;;;;;;5093953;28;20105;-33
2023/11/07 04:30:57;;;;;;;4.28;3.70;;;18.40;60.20;;;;;;5087382;28;20040;-33
2023/11/07 04:33:23;;;;;;;4.13;3.80;;;18.50;60.30;;;;;;5093522;28;20052;-34
2023/11/07 04:35:49;;;;;;;4.22;3.90;;;18.40;60.20;;;;;;5089891;28;20052;-34
2023/11/07 04:38:19;;;;;;;3.90;3.50;;;18.40;60.30;;;;;;5090013;28;20063;-34
2023/11/07 04:40:46;;;;;;;4.40;3.60;;;18.40;60.30;;;;;;5102026;28;20032;-33
2023/11/07 04:43:12;;;;;;;4.90;3.70;;;18.40;60.40;;;;;;5090618;28;20066;-34
2023/11/07 04:45:39;;;;;;;4.53;3.93;;;18.30;60.30;;;;;;5089811;28;20039;-39
2023/11/07 04:48:06;;;;;;;4.00;3.70;;;18.30;60.30;;;;;;5096578;28;20353;-33
2023/11/07 04:50:34;;;;;;;4.72;4.28;;;18.30;60.30;;;;;;5093204;28;20136;-35
2023/11/07 04:53:04;;;;;;;4.57;4.18;;;18.30;60.40;;;;;;5100481;28;20029;-34
2023/11/07 04:55:33;;;;;;;4.38;3.97;;;18.30;60.40;;;;;;5100174;28;20047;-34
2023/11/07 04:58:01;;;;;;;4.03;3.72;;;18.30;60.40;;;;;;5096963;28;20048;-33
2023/11/07 05:00:28;;;;;;;4.45;4.05;;;18.30;60.40;;;;;;5091843;28;20032;-34
2023/11/07 05:02:55;;;;;;;;;;;18.20;60.40;;;;;;5097143;28;20047;-34
2023/11/07 05:05:21;;;;;;;4.43;3.97;;;18.20;60.40;;;;;;5091389;28;20265;-34
2023/11/07 05:07:47;;;;;;;4.47;4.07;;;18.20;60.40;;;;;;5096584;28;20039;-35
2023/11/07 05:10:14;;;;;;;4.55;4.15;;;18.20;60.40;;;;;;5093780;28;20032;-34
2023/11/07 05:12:40;;;;;;;4.10;3.80;;;18.20;60.50;;;;;;5101167;28;20048;-34
2023/11/07 05:15:07;;;;;;;4.30;3.90;;;18.20;60.50;;;;;;5096503;28;20069;-34
2023/11/07 05:17:35;;;;;;;4.68;4.18;;;18.10;60.50;;;;;;5102435;28;20032;-33
2023/11/07 05:20:07;;;;;;;4.50;4.05;;;18.10;60.50;;;;;;5093970;28;20854;-34
2023/11/07 05:22:33;;;;;;;4.22;3.83;;;18.10;60.50;;;;;;5099996;28;20032;-33
2023/11/07 05:24:59;;;;;;;4.55;4.10;;;18.10;60.60;;;;;;5096381;28;20132;-33
2023/11/07 05:27:26;;;;;;;5.88;4.25;;;18.10;60.60;;;;;;5102687;28;20028;-34
2023/11/07 05:29:52;;;;;;;4.43;4.03;;;18.10;60.70;;;;;;5101737;28;20058;-34
2023/11/07 05:32:18;;;;;;;3.95;3.58;;;18.00;60.60;;;;;;5091076;28;20040;-34
2023/11/07 05:34:44;;;;;;;4.55;3.97;;;18.00;60.70;;;;;;5102395;28;20039;-34
2023/11/07 05:37:11;;;;;;;5.00;4.50;;;18.00;60.70;;;;;;5095452;28;20032;-34
2023/11/07 05:39:37;;;;;;;4.55;4.07;;;18.00;60.70;;;;;;5086135;28;20117;-33
2023/11/07 05:42:06;;;;;;;4.22;3.83;;;18.00;60.80;;;;;;5095501;28;20089;-34
2023/11/07 05:44:33;;;;;;;4.78;4.30;;;18.00;60.70;;;;;;5096275;28;20078;-34
2023/11/07 05:46:59;;;;;;;5.07;4.57;;;18.00;60.80;;;;;;5088600;28;20059;-34
2023/11/07 05:49:25;;;;;;;4.85;4.35;;;17.90;60.70;;;;;;5085706;28;20036;-34
2023/11/07 05:51:52;;;;;;;5.05;4.55;;;17.90;60.80;;;;;;5108189;28;21181;-33
2023/11/07 05:54:18;;;;;;;4.93;4.40;;;17.90;60.80;;;;;;5096113;28;20033;-33
2023/11/07 05:56:44;;;;;;;4.43;4.03;;;17.90;60.80;;;;;;5095035;28;20496;-33
2023/11/07 05:59:10;;;;;;;4.90;4.45;;;17.90;60.90;;;;;;5085393;28;20036;-34
2023/11/07 06:01:37;;;;;;;4.93;4.50;;;17.90;60.90;;;;;;5097310;28;20046;-34
2023/11/07 06:04:04;;;;;;;4.90;4.30;;;17.90;60.90;;;;;;5086910;28;20020;-34
2023/11/07 06:06:30;;;;;;;5.00;4.60;;;17.80;60.80;;;;;;5087802;28;20043;-34
2023/11/07 06:08:56;;;;;;;3.60;3.30;;;17.80;60.90;;;;;;5094276;28;20032;-34
2023/11/07 06:11:22;;;;;;;5.00;4.35;;;17.80;61.00;;;;;;5091879;28;20040;-33
2023/11/07 06:13:48;;;;;;;5.07;4.57;;;17.80;61.00;;;;;;5086244;28;20060;-33
2023/11/07 06:16:15;;;;;;;5.20;4.70;;;17.80;61.00;;;;;;5091909;28;20036;-33
2023/11/07 06:18:41;;;;;;;6.30;5.07;;;17.80;61.10;;;;;;5095531;28;20431;-33
2023/11/07 06:21:08;;;;;;;5.45;4.63;;;17.70;61.00;;;;;;5098073;28;20533;-33
2023/11/07 06:23:34;;;;;;;6.68;4.78;;;17.70;61.00;;;;;;5091169;28;20035;-34
2023/11/07 06:26:00;;;;;;;5.32;4.80;;;17.70;61.00;;;;;;5092075;28;20032;-34
2023/11/07 06:28:28;;;;;;;5.32;4.72;;;17.70;61.10;;;;;;5092270;28;20431;-34
2023/11/07 06:30:55;;;;;;;4.95;4.45;;;17.70;61.10;;;;;;5093454;28;20688;-34
2023/11/07 06:33:21;;;;;;;4.97;4.57;;;17.70;61.10;;;;;;5091455;28;20088;-34
2023/11/07 06:35:49;;;;;;;4.75;4.15;;;17.70;61.20;;;;;;5086352;28;20036;-34
2023/11/07 06:38:17;;;;;;;5.65;4.80;;;17.70;61.20;;;;;;5091152;28;20043;-34
2023/11/07 06:40:43;;;;;;;5.10;4.60;;;17.60;61.20;;;;;;5087259;28;20032;-34
2023/11/07 06:43:09;;;;;;;4.90;4.40;;;17.60;61.20;;;;;;5090419;28;20044;-34
2023/11/07 06:45:35;;;;;;;6.20;4.85;;;17.60;61.20;;;;;;5084107;28;20036;-34
2023/11/07 06:48:03;;;;;;;4.68;4.28;;;17.60;61.20;;;;;;5093395;28;20492;-33
2023/11/07 06:50:30;;;;;;;5.07;4.60;;;17.60;61.20;;;;;;5089058;28;20044;-34
2023/11/07 06:52:56;;;;;;;4.95;4.55;;;17.60;61.30;;;;;;5098799;28;21087;-33
2023/11/07 06:55:25;;;;;;;5.95;4.95;;;17.60;61.30;;;;;;5089928;28;20042;-34
2023/11/07 06:57:52;;;;;;;5.97;5.22;;;17.50;61.30;;;;;;5099661;28;20036;-33
2023/11/07 07:00:21;;;;;;;5.03;4.53;;;17.50;61.30;;;;;;5090926;28;20036;-34
2023/11/07 07:02:54;;;;;;;5.22;4.55;;;17.50;61.30;;;;;;5091269;28;20063;-34
2023/11/07 07:05:21;;;;;;;4.80;4.40;;;17.50;61.30;;;;;;5098016;28;20053;-33
2023/11/07 07:07:48;;;;;;;5.38;4.85;;;17.50;61.30;;;;;;5096934;28;20154;-34
2023/11/07 07:10:14;;;;;;;4.90;4.50;;;17.40;61.30;;;;;;5098281;28;20037;-33
2023/11/07 07:12:40;;;;;;;5.07;4.47;;;17.40;61.40;;;;;;5098233;28;20092;-34
2023/11/07 07:15:07;;;;;;;5.15;4.60;;;17.40;61.40;;;;;;5095085;28;20024;-33
2023/11/07 07:17:33;;;;;;;5.50;5.00;;;17.40;61.50;;;;;;5087895;28;20059;-33
2023/11/07 07:19:59;;;;;;;5.53;5.03;;;17.40;61.50;;;;;;5091589;28;20024;-34
2023/11/07 07:22:29;;;;;;;5.55;4.93;;;17.40;61.50;;;;;;5097923;28;20032;-34
2023/11/07 07:24:55;;;;;;;5.32;4.82;;;17.40;61.50;;;;;;5094051;28;20024;-34
2023/11/07 07:27:27;;;;;;;5.72;5.22;;;17.40;61.60;;;;;;5101450;28;20599;-34
2023/11/07 07:29:59;;;;;;;5.47;4.97;;;17.30;61.50;;;;;;5099164;28;20095;-34
2023/11/07 07:32:29;;;;;;;4.80;4.40;;;17.30;61.50;;;;;;5091006;28;20078;-34
2023/11/07 07:34:56;;;;;;;5.18;4.68;;;17.30;61.60;;;;;;5099184;28;20020;-34
2023/11/07 07:37:23;;;;;;;5.38;4.88;;;17.30;61.60;;;;;;5093183;28;20032;-34
2023/11/07 07:39:49;;;;;;;7.80;5.60;;;17.20;61.60;;;;;;5098818;28;20020;-34
2023/11/07 07:42:17;;;;;;;5.32;4.82;;;17.20;61.70;;;;;;5093784;28;20070;-34
2023/11/07 07:44:44;;;;;;;5.97;5.38;;;17.20;61.70;;;;;;5101995;28;20052;-33
2023/11/07 07:47:10;;;;;;;5.60;5.10;;;17.20;61.70;;;;;;5086660;28;20039;-34
2023/11/07 07:49:37;;;;;;;6.23;5.07;;;17.20;61.70;;;;;;5099039;28;20038;-33
2023/11/07 07:52:12;;;;;;;5.95;5.05;;;17.20;61.80;;;;;;5105409;28;20504;-34
2023/11/07 07:54:39;;;;;;;5.28;4.78;;;17.20;61.80;;;;;;5106576;28;20117;-34
2023/11/07 07:57:05;;;;;;;5.25;4.75;;;17.20;61.80;;;;;;5088727;28;20040;-34
2023/11/07 07:59:32;;;;;;;5.65;5.13;;;17.10;61.70;;;;;;5087661;28;20037;-35
2023/11/07 08:01:58;;;;;;;5.30;4.80;;;17.10;61.80;;;;;;5096583;28;20025;-34
2023/11/07 08:04:25;;;;;;;6.25;5.18;;;17.10;61.80;;;;;;5094889;28;20036;-34
2023/11/07 08:06:51;;;;;;;5.53;4.80;;;17.10;61.90;;;;;;5093571;28;20029;-35
2023/11/07 08:09:22;;;;;;;6.93;5.30;;;17.10;61.90;;;;;;5100935;28;20032;-34
2023/11/07 08:11:50;;;;;;;5.57;5.07;;;17.10;61.90;;;;;;5087451;28;20040;-35
2023/11/07 08:14:17;;;;;;;5.57;4.93;;;17.10;61.90;;;;;;5105083;28;20024;-34
2023/11/07 08:16:43;;;;;;;5.43;4.77;;;17.00;61.90;;;;;;5105024;28;20080;-34
2023/11/07 08:19:10;;;;;;;5.57;5.07;;;17.00;61.90;;;;;;5098232;28;20268;-34
2023/11/07 08:21:40;;;;;;;5.10;4.60;;;17.00;62.20;;;;;;5103357;28;20054;-35
2023/11/07 08:24:08;;;;;;;5.10;4.60;;;17.10;62.50;;;;;;5094717;28;20088;-34
2023/11/07 08:26:35;;;;;;;5.53;5.03;;;17.10;62.50;;;;;;5094612;28;20088;-34
2023/11/07 08:29:07;;;;;;;5.45;4.95;;;17.10;62.40;;;;;;5088478;28;20177;-34
2023/11/07 08:31:34;;;;;;;4.80;4.25;;;17.10;62.40;;;;;;5086398;28;20048;-34
2023/11/07 08:34:01;;;;;;;5.50;4.80;;;17.10;62.40;;;;;;5095381;28;20071;-34
2023/11/07 08:36:28;;;;;;;5.40;4.82;;;17.00;62.40;;;;;;5088259;28;20036;-34
2023/11/07 08:38:54;;;;;;;5.47;4.97;;;17.00;62.90;;;;;;5087325;28;20056;-34
2023/11/07 08:41:23;;;;;;;5.97;4.85;;;17.00;62.50;;;;;;5094307;28;20059;-34
2023/11/07 08:43:53;;;;;;;5.03;4.55;;;17.00;62.40;;;;;;5097690;28;20120;-34
2023/11/07 08:46:19;;;;;;;5.28;4.78;;;17.10;62.90;;;;;;5097070;28;20024;-34
2023/11/07 08:48:46;;;;;;;4.83;4.40;;;17.10;63.00;;;;;;5104709;28;20031;-34
2023/11/07 08:51:15;;;;;;;5.03;4.53;;;17.10;62.90;;;;;;5088450;28;20360;-34
2023/11/07 08:53:42;;;;;;;4.78;4.00;;;17.10;62.70;;;;;;5096565;28;20042;-34
2023/11/07 08:56:09;;;;;;;4.75;4.35;;;17.10;62.70;;;;;;5087374;28;20028;-34
2023/11/07 08:58:35;;;;;;;4.85;4.45;;;17.10;62.80;;;;;;5101471;28;20032;-33
2023/11/07 09:01:01;;;;;;;5.00;4.50;;;17.00;62.70;;;;;;5092596;28;20032;-34
2023/11/07 09:03:29;;;;;;;5.65;5.15;;;17.00;62.80;;;;;;5092099;28;20031;-34
2023/11/07 09:05:55;;;;;;;5.25;4.75;;;17.00;62.70;;;;;;5095947;28;20036;-33
2023/11/07 09:08:21;;;;;;;4.82;4.40;;;16.90;62.60;;;;;;5097423;28;20037;-33
2023/11/07 09:10:47;;;;;;;4.45;4.05;;;17.00;63.10;;;;;;5101364;28;20631;-33
2023/11/07 09:13:14;;;;;;;3.28;2.97;;;17.10;63.10;;;;;;5100108;28;20044;-33
2023/11/07 09:15:41;;;;;;;5.00;4.50;;;17.10;63.00;;;;;;5093380;28;20028;-33
2023/11/07 09:18:07;;;;;;;4.05;3.72;;;17.10;62.90;;;;;;5096997;28;20074;-33
2023/11/07 09:20:42;;;;;;;5.00;4.50;;;17.10;63.00;;;;;;5096607;28;20038;-33
2023/11/07 09:23:08;;;;;;;5.47;4.75;;;17.00;62.90;;;;;;5107459;28;20477;-33
2023/11/07 09:25:35;;;;;;;5.53;4.72;;;17.00;62.90;;;;;;5100328;28;20031;-34
2023/11/07 09:28:01;;;;;;;4.43;4.03;;;17.00;62.90;;;;;;5095271;28;20032;-33
2023/11/07 09:30:27;;;;;;;4.75;4.35;;;17.00;63.10;;;;;;5096282;28;20101;-34
2023/11/07 09:32:53;;;;;;;4.30;3.90;;;17.10;63.30;;;;;;5096709;28;20028;-34
2023/11/07 09:35:19;;;;;;;4.50;4.10;;;17.10;63.10;;;;;;5096360;28;20583;-33
2023/11/07 09:37:46;;;;;;;4.63;4.00;;;17.10;63.00;;;;;;5090086;28;20016;-34
2023/11/07 09:40:19;;;;;;;4.78;4.03;;;17.10;63.00;;;;;;5090302;28;20128;-34
2023/11/07 09:42:45;;;;;;;5.45;4.75;;;17.10;63.10;;;;;;5103042;28;20028;-33
2023/11/07 09:45:16;;;;;;;7.20;4.60;;;17.00;63.10;;;;;;5095145;28;20063;-34
2023/11/07 09:47:48;;;;;;;4.93;4.43;;;17.00;63.00;;;;;;5092865;28;20032;-33
2023/11/07 09:50:18;;;;;;;5.15;4.00;;;17.00;63.00;;;;;;5091487;28;20036;-34
2023/11/07 09:52:46;;;;;;;4.30;3.90;;;17.00;63.10;;;;;;5107665;28;20028;-33
2023/11/07 09:55:15;;;;;;;4.63;3.95;;;17.10;63.50;;;;;;5103780;28;20036;-33
2023/11/07 09:58:07;;;;;;;4.82;4.43;;;17.20;63.40;;;;;;5102933;28;20040;-34
2023/11/07 10:00:35;;;;;;;4.78;4.32;;;17.10;63.20;;;;;;5096205;28;20047;-34
2023/11/07 10:03:02;;;;;;;4.90;4.43;;;17.10;63.10;;;;;;5087181;28;20044;-34
2023/11/07 10:05:29;;;;;;;4.77;4.37;;;17.10;63.10;;;;;;5096024;28;20036;-34
2023/11/07 10:07:57;;;;;;;4.88;4.38;;;17.10;63.20;;;;;;5095120;28;21518;-33
2023/11/07 10:10:24;;;;;;;4.80;4.35;;;17.00;63.20;;;;;;5097834;28;20062;-34
2023/11/07 10:12:50;;;;;;;8.98;4.30;;;17.00;63.20;;;;;;5093368;28;20116;-34
2023/11/07 10:15:27;;;;;;;4.75;4.25;;;17.00;63.20;;;;;;5095422;28;20411;-35
2023/11/07 10:18:00;;;;;;;4.40;4.00;;;17.00;63.40;;;;;;5101919;28;20442;-34
2023/11/07 10:20:28;;;;;;;4.70;4.28;;;17.20;63.50;;;;;;5097731;28;20028;-35
2023/11/07 10:22:54;;;;;;;4.40;3.78;;;17.10;63.20;;;;;;5099294;28;20028;-35
2023/11/07 10:25:33;;;;;;;4.95;4.15;;;17.10;63.20;;;;;;5096920;28;20039;-34
2023/11/07 10:28:06;;;;;;;4.90;4.40;;;17.10;63.20;;;;;;5099297;28;20043;-35
2023/11/07 10:30:45;;;;;;;4.35;3.95;;;17.10;63.20;;;;;;5093077;28;20053;-34
2023/11/07 10:33:32;;;;;;;4.25;3.85;;;17.00;63.20;;;;;;5095301;28;20024;-34
2023/11/07 10:36:00;;;;;;;4.43;4.03;;;17.00;63.20;;;;;;5101256;28;20036;-34
2023/11/07 10:38:28;;;;;;;4.45;4.05;;;17.10;63.50;;;;;;5093962;28;20032;-32
2023/11/07 10:40:55;;;;;;;4.57;4.15;;;17.20;63.60;;;;;;5100565;28;20484;-34
2023/11/07 10:43:41;;;;;;;4.30;3.90;;;17.20;63.40;;;;;;5101721;28;20046;-34
2023/11/07 10:46:10;;;;;;;4.40;4.00;;;17.10;63.30;;;;;;5101034;28;20393;-34
2023/11/07 10:48:41;;;;;;;4.97;4.47;;;17.10;63.20;;;;;;5092096;28;20035;-34
2023/11/07 10:51:11;;;;;;;4.47;4.07;;;17.10;63.30;;;;;;5104991;28;20039;-34
2023/11/07 10:53:38;;;;;;;4.95;4.45;;;17.00;63.20;;;;;;5105582;28;20028;-34
2023/11/07 10:56:14;;;;;;;5.18;4.68;;;17.00;63.20;;;;;;5094625;28;20151;-34
2023/11/07 10:58:43;;;;;;;4.47;4.07;;;17.00;63.40;;;;;;5100921;28;20032;-34
2023/11/07 11:01:11;;;;;;;4.47;3.80;;;17.20;63.50;;;;;;5094987;28;20028;-34
2023/11/07 11:03:37;;;;;;;4.70;4.20;;;17.20;63.60;;;;;;5096097;28;20025;-34
2023/11/07 11:06:05;;;;;;;4.90;4.20;;;17.20;63.40;;;;;;5094412;28;20024;-34
2023/11/07 11:08:31;;;;;;;;;;;17.10;63.30;;;;;;5099522;28;20047;-34
2023/11/07 11:10:57;;;;;;;4.80;4.25;;;17.10;63.30;;;;;;5100890;28;19924;-34
2023/11/07 11:13:24;;;;;;;5.40;4.68;;;17.10;63.40;;;;;;5096578;28;20032;-34
2023/11/07 11:15:52;;;;;;;4.88;4.30;;;17.00;63.30;;;;;;5099126;28;20085;-34
2023/11/07 11:18:24;;;;;;;4.60;4.20;;;17.10;63.60;;;;;;5101820;28;20030;-34
2023/11/07 11:21:05;;;;;;;5.18;4.25;;;17.20;63.60;;;;;;5092992;28;20064;-33
2023/11/07 11:24:02;;;;;;;4.60;4.07;;;17.20;63.50;;;;;;5092407;28;20036;-32
2023/11/07 11:26:47;;;;;;;4.72;4.28;;;17.10;63.30;;;;;;5088110;28;20037;-34
2023/11/07 11:29:27;;;;;;;4.28;3.92;;;17.10;64.10;;;;;;5090433;28;20024;-34
2023/11/07 11:31:53;;;;;;;4.45;4.05;;;17.10;63.30;;;;;;5099147;28;20040;-34
2023/11/07 11:34:27;;;;;;;4.60;4.15;;;17.00;63.30;;;;;;5096560;28;20781;-34
2023/11/07 11:37:00;;;;;;;4.32;3.92;;;17.00;63.40;;;;;;5093677;28;20077;-34
2023/11/07 11:39:29;;;;;;;4.45;4.05;;;17.10;63.70;;;;;;5094331;28;20034;-34
2023/11/07 11:42:03;;;;;;;4.95;4.07;;;17.20;63.50;;;;;;5092911;28;20039;-34
2023/11/07 11:44:29;;;;;;;4.50;4.10;;;17.20;63.40;;;;;;5101297;28;20101;-34
2023/11/07 11:46:55;;;;;;;4.35;3.95;;;17.20;63.40;;;;;;5092333;28;20028;-35
2023/11/07 11:49:23;;;;;;;4.57;4.18;;;17.10;63.30;;;;;;5101362;28;20059;-35
2023/11/07 11:51:51;;;;;;;4.53;4.13;;;17.10;63.40;;;;;;5107546;28;20036;-35
2023/11/07 11:54:24;;;;;;;5.38;4.15;;;17.10;63.30;;;;;;5094297;28;20052;-34
2023/11/07 11:56:50;;;;;;;4.30;3.90;;;17.10;63.30;;;;;;5086822;28;20054;-35
2023/11/07 11:59:48;;;;;;;4.40;4.00;;;17.00;63.40;;;;;;5101203;28;20017;-35
2023/11/07 12:02:14;;;;;;;4.30;3.90;;;17.20;63.50;;;;;;5088941;28;20036;-34
2023/11/07 12:04:47;;;;;;;4.55;4.07;;;17.20;63.50;;;;;;5095840;28;20131;-35
2023/11/07 12:07:14;;;;;;;4.70;4.20;;;17.20;63.40;;;;;;5091525;28;20032;-34
2023/11/07 12:09:42;;;;;;;5.17;4.57;;;17.20;63.40;;;;;;5101872;28;20024;-34
2023/11/07 12:12:09;;;;;;;4.70;4.20;;;17.10;63.30;;;;;;5100849;28;20035;-35
2023/11/07 12:14:55;;;;;;;4.43;4.03;;;17.10;63.30;;;;;;5100636;28;20060;-34
2023/11/07 12:17:22;;;;;;;4.50;4.10;;;17.10;63.30;;;;;;5090397;28;20089;-35
2023/11/07 12:19:49;;;;;;;4.93;3.83;;;17.00;63.20;;;;;;5093279;28;20043;-35
2023/11/07 12:22:16;;;;;;;4.32;3.72;;;17.10;63.50;;;;;;5108214;28;20062;-35
2023/11/07 12:24:42;;;;;;;5.13;4.55;;;17.20;63.60;;;;;;5095264;28;20077;-33
2023/11/07 12:27:09;;;;;;;4.67;4.20;;;17.20;63.50;;;;;;5100827;28;20032;-34
2023/11/07 12:29:39;;;;;;;4.72;4.25;;;17.20;63.40;;;;;;5094337;28;20114;-34
2023/11/07 12:32:05;;;;;;;5.05;4.50;;;17.20;63.40;;;;;;5093127;28;20051;-34
2023/11/07 12:34:32;;;;;;;4.68;4.28;;;17.10;63.30;;;;;;5096274;28;20032;-34
2023/11/07 12:37:19;;;;;;;4.50;4.10;;;17.10;63.30;;;;;;5093861;28;20422;-34
2023/11/07 12:39:46;;;;;;;4.80;4.30;;;17.10;63.40;;;;;;5103896;28;20035;-34
2023/11/07 12:42:13;;;;;;;4.60;3.92;;;17.10;63.50;;;;;;5103622;28;20039;-34
2023/11/07 12:44:41;;;;;;;4.78;4.38;;;17.20;63.60;;;;;;5095167;28;20598;-34
2023/11/07 12:47:10;;;;;;;4.25;3.85;;;17.20;63.60;;;;;;5099169;28;20036;-34
2023/11/07 12:49:38;;;;;;;4.20;3.80;;;17.20;63.40;;;;;;5095952;28;20036;-33
2023/11/07 12:52:11;;;;;;;4.75;4.32;;;17.20;63.40;;;;;;5104172;28;20055;-33